createdAt,value
2018-06-13T00:00:29.010Z,0
2018-06-13T00:01:29.011Z,0
2018-06-13T00:02:28.988Z,0
2018-06-13T00:03:28.984Z,0
2018-06-13T00:04:28.461Z,0
2018-06-13T00:05:28.715Z,0
2018-06-13T00:06:28.708Z,0
2018-06-13T00:07:28.703Z,0
2018-06-13T00:08:28.438Z,0
2018-06-13T00:09:28.427Z,0
2018-06-13T00:10:28.932Z,0
2018-06-13T00:11:28.981Z,0
2018-06-13T00:12:28.927Z,0
2018-06-13T00:13:28.395Z,0
2018-06-13T00:14:28.392Z,0
2018-06-13T00:15:28.388Z,0
2018-06-13T00:16:29.015Z,0
2018-06-13T00:17:28.888Z,0
2018-06-13T00:18:28.980Z,0
2018-06-13T00:19:28.881Z,0
2018-06-13T00:20:28.864Z,0
2018-06-13T00:21:28.605Z,0
2018-06-13T00:22:28.856Z,0
2018-06-13T00:23:28.842Z,0
2018-06-13T00:24:28.585Z,0
2018-06-13T00:25:28.834Z,0
2018-06-13T00:26:28.825Z,0
2018-06-13T00:27:28.820Z,0
2018-06-13T00:28:28.908Z,0
2018-06-13T00:29:28.806Z,0
2018-06-13T00:30:28.543Z,0
2018-06-13T00:31:28.785Z,0
2018-06-13T00:32:28.885Z,0
2018-06-13T00:33:28.777Z,0
2018-06-13T00:34:28.768Z,0
2018-06-13T00:35:28.761Z,0
2018-06-13T00:36:28.500Z,0
2018-06-13T00:37:28.488Z,0
2018-06-13T00:38:28.746Z,0
2018-06-13T00:39:28.475Z,0
2018-06-13T00:40:28.735Z,0
2018-06-13T00:41:28.721Z,0
2018-06-13T00:42:28.719Z,0
2018-06-13T00:43:28.443Z,0
2018-06-13T00:44:28.702Z,0
2018-06-13T00:45:28.441Z,0
2018-06-13T00:46:28.685Z,0
2018-06-13T00:47:28.728Z,0
2018-06-13T00:48:28.662Z,0
2018-06-13T00:49:28.151Z,0
2018-06-13T00:50:28.243Z,0
2018-06-13T00:51:28.647Z,0
2018-06-13T00:52:28.649Z,0
2018-06-13T00:53:28.643Z,0
2018-06-13T00:54:28.628Z,0
2018-06-13T00:55:28.365Z,0
2018-06-13T00:56:28.355Z,0
2018-06-13T00:57:28.608Z,0
2018-06-13T00:58:28.343Z,0
2018-06-13T00:59:28.343Z,0
2018-06-13T01:00:28.072Z,0
2018-06-13T01:01:28.321Z,0
2018-06-13T01:02:28.055Z,0
2018-06-13T01:03:28.566Z,0
2018-06-13T01:04:28.042Z,0
2018-06-13T01:05:28.040Z,0
2018-06-13T01:06:28.034Z,0
2018-06-13T01:07:28.023Z,0
2018-06-13T01:08:28.277Z,0
2018-06-13T01:09:28.522Z,0
2018-06-13T01:10:28.005Z,0
2018-06-13T01:11:28.517Z,0
2018-06-13T01:12:28.506Z,0
2018-06-13T01:13:28.238Z,0
2018-06-13T01:14:28.502Z,0
2018-06-13T01:15:28.219Z,0
2018-06-13T01:16:28.221Z,0
2018-06-13T01:17:28.474Z,0
2018-06-13T01:18:28.202Z,0
2018-06-13T01:19:27.942Z,0
2018-06-13T01:20:28.455Z,0
2018-06-13T01:21:28.438Z,0
2018-06-13T01:22:28.434Z,0
2018-06-13T01:23:28.166Z,0
2018-06-13T01:24:28.419Z,0
2018-06-13T01:25:28.412Z,0
2018-06-13T01:26:27.636Z,0
2018-06-13T01:27:28.395Z,0
2018-06-13T01:28:28.132Z,0
2018-06-13T01:29:28.026Z,0
2018-06-13T01:30:28.118Z,0
2018-06-13T01:31:28.114Z,0
2018-06-13T01:32:27.854Z,0
2018-06-13T01:33:27.847Z,0
2018-06-13T01:34:28.356Z,0
2018-06-13T01:35:28.340Z,0
2018-06-13T01:36:28.347Z,0
2018-06-13T01:37:28.325Z,0
2018-06-13T01:38:28.059Z,0
2018-06-13T01:39:27.796Z,0
2018-06-13T01:40:28.052Z,0
2018-06-13T01:41:27.785Z,0
2018-06-13T01:42:28.041Z,0
2018-06-13T01:43:28.284Z,0
2018-06-13T01:44:28.029Z,0
2018-06-13T01:45:28.015Z,0
2018-06-13T01:46:28.270Z,0
2018-06-13T01:47:28.252Z,0
2018-06-13T01:48:27.992Z,0
2018-06-13T01:49:28.026Z,0
2018-06-13T01:50:27.716Z,0
2018-06-13T01:51:28.226Z,0
2018-06-13T01:52:27.962Z,0
2018-06-13T01:53:27.698Z,0
2018-06-13T01:54:28.200Z,0
2018-06-13T01:55:28.192Z,0
2018-06-13T01:56:28.190Z,0
2018-06-13T01:57:28.185Z,0
2018-06-13T01:58:28.170Z,0
2018-06-13T01:59:27.916Z,0
2018-06-13T02:00:27.904Z,0
2018-06-13T02:01:28.155Z,0
2018-06-13T02:02:28.145Z,0
2018-06-13T02:03:28.132Z,0
2018-06-13T02:04:27.868Z,0
2018-06-13T02:05:27.866Z,0
2018-06-13T02:06:28.123Z,0
2018-06-13T02:07:27.855Z,0
2018-06-13T02:08:28.110Z,0
2018-06-13T02:09:27.835Z,0
2018-06-13T02:10:27.825Z,0
2018-06-13T02:11:28.073Z,0
2018-06-13T02:12:28.064Z,0
2018-06-13T02:13:27.542Z,0
2018-06-13T02:14:27.795Z,0
2018-06-13T02:15:28.052Z,0
2018-06-13T02:16:28.045Z,0
2018-06-13T02:17:27.777Z,0
2018-06-13T02:18:28.023Z,0
2018-06-13T02:19:27.755Z,0
2018-06-13T02:20:28.009Z,0
2018-06-13T02:21:27.992Z,4
2018-06-13T02:22:27.991Z,4
2018-06-13T02:23:27.990Z,4
2018-06-13T02:24:27.977Z,0
2018-06-13T02:25:27.972Z,0
2018-06-13T02:26:27.965Z,0
2018-06-13T02:27:27.878Z,4
2018-06-13T02:28:27.949Z,4
2018-06-13T02:29:27.943Z,4
2018-06-13T02:30:27.680Z,4
2018-06-13T02:31:27.675Z,4
2018-06-13T02:32:27.918Z,4
2018-06-13T02:33:27.916Z,8
2018-06-13T02:34:27.924Z,4
2018-06-13T02:35:27.902Z,8
2018-06-13T02:36:27.885Z,8
2018-06-13T02:37:27.875Z,4
2018-06-13T02:38:27.874Z,8
2018-06-13T02:39:27.869Z,8
2018-06-13T02:40:27.600Z,12
2018-06-13T02:41:27.928Z,8
2018-06-13T02:42:27.584Z,8
2018-06-13T02:43:27.844Z,12
2018-06-13T02:44:27.568Z,16
2018-06-13T02:45:27.560Z,16
2018-06-13T02:46:27.810Z,20
2018-06-13T02:47:27.802Z,20
2018-06-13T02:48:27.798Z,24
2018-06-13T02:49:27.789Z,28
2018-06-13T02:50:27.782Z,32
2018-06-13T02:51:27.510Z,36
2018-06-13T02:52:27.513Z,40
2018-06-13T02:53:27.765Z,44
2018-06-13T02:54:27.494Z,44
2018-06-13T02:55:27.486Z,48
2018-06-13T02:56:27.478Z,52
2018-06-13T02:57:27.461Z,60
2018-06-13T02:58:27.732Z,64
2018-06-13T02:59:27.724Z,68
2018-06-13T03:00:27.190Z,72
2018-06-13T03:01:27.693Z,76
2018-06-13T03:02:27.681Z,84
2018-06-13T03:03:27.428Z,84
2018-06-13T03:04:27.418Z,92
2018-06-13T03:05:27.411Z,96
2018-06-13T03:06:27.651Z,104
2018-06-13T03:07:27.649Z,108
2018-06-13T03:08:27.381Z,116
2018-06-13T03:09:27.374Z,128
2018-06-13T03:10:27.619Z,140
2018-06-13T03:11:27.625Z,156
2018-06-13T03:12:27.601Z,168
2018-06-13T03:13:27.344Z,180
2018-06-13T03:14:27.331Z,192
2018-06-13T03:15:27.331Z,200
2018-06-13T03:16:27.325Z,208
2018-06-13T03:17:27.062Z,208
2018-06-13T03:18:27.563Z,216
2018-06-13T03:19:27.576Z,220
2018-06-13T03:20:27.279Z,236
2018-06-13T03:21:27.539Z,248
2018-06-13T03:22:27.268Z,256
2018-06-13T03:23:27.515Z,264
2018-06-13T03:24:27.511Z,276
2018-06-13T03:25:27.243Z,292
2018-06-13T03:26:27.237Z,300
2018-06-13T03:27:26.979Z,304
2018-06-13T03:28:27.484Z,308
2018-06-13T03:29:27.472Z,324
2018-06-13T03:30:27.471Z,340
2018-06-13T03:31:27.454Z,352
2018-06-13T03:32:27.439Z,352
2018-06-13T03:33:27.440Z,352
2018-06-13T03:34:27.433Z,352
2018-06-13T03:35:27.421Z,344
2018-06-13T03:36:27.415Z,336
2018-06-13T03:37:27.141Z,328
2018-06-13T03:38:26.882Z,308
2018-06-13T03:39:27.131Z,300
2018-06-13T03:40:27.120Z,276
2018-06-13T03:41:27.372Z,272
2018-06-13T03:42:27.107Z,272
2018-06-13T03:43:27.361Z,296
2018-06-13T03:44:27.133Z,316
2018-06-13T03:45:27.337Z,352
2018-06-13T03:46:27.336Z,364
2018-06-13T03:47:27.063Z,380
2018-06-13T03:48:27.063Z,388
2018-06-13T03:49:27.046Z,392
2018-06-13T03:50:27.303Z,400
2018-06-13T03:51:27.291Z,404
2018-06-13T03:52:27.023Z,400
2018-06-13T03:53:27.271Z,404
2018-06-13T03:54:27.008Z,404
2018-06-13T03:55:27.261Z,392
2018-06-13T03:56:26.995Z,404
2018-06-13T03:57:27.247Z,440
2018-06-13T03:58:26.983Z,420
2018-06-13T03:59:26.967Z,396
2018-06-13T04:00:26.955Z,408
2018-06-13T04:01:27.222Z,392
2018-06-13T04:02:27.199Z,368
2018-06-13T04:03:26.937Z,380
2018-06-13T04:04:27.184Z,376
2018-06-13T04:05:27.172Z,364
2018-06-13T04:06:26.912Z,372
2018-06-13T04:07:27.165Z,416
2018-06-13T04:08:27.155Z,428
2018-06-13T04:09:26.889Z,468
2018-06-13T04:10:26.882Z,536
2018-06-13T04:11:26.883Z,596
2018-06-13T04:12:27.122Z,664
2018-06-13T04:13:27.110Z,668
2018-06-13T04:14:26.846Z,784
2018-06-13T04:15:27.094Z,808
2018-06-13T04:16:27.083Z,888
2018-06-13T04:17:26.875Z,936
2018-06-13T04:18:26.811Z,988
2018-06-13T04:19:27.115Z,1040
2018-06-13T04:20:27.052Z,1076
2018-06-13T04:21:27.054Z,1080
2018-06-13T04:22:27.224Z,1088
2018-06-13T04:23:27.031Z,1092
2018-06-13T04:24:26.766Z,1108
2018-06-13T04:25:27.058Z,1124
2018-06-13T04:26:27.010Z,1168
2018-06-13T04:27:26.999Z,1204
2018-06-13T04:28:26.994Z,1192
2018-06-13T04:29:26.985Z,1208
2018-06-13T04:30:27.048Z,1208
2018-06-13T04:31:26.193Z,1200
2018-06-13T04:32:26.442Z,1196
2018-06-13T04:33:26.690Z,1176
2018-06-13T04:34:26.688Z,1164
2018-06-13T04:35:26.676Z,1140
2018-06-13T04:36:26.416Z,1120
2018-06-13T04:37:26.672Z,1112
2018-06-13T04:38:26.907Z,1104
2018-06-13T04:39:26.650Z,1104
2018-06-13T04:40:26.640Z,1100
2018-06-13T04:41:26.888Z,1096
2018-06-13T04:42:26.877Z,1060
2018-06-13T04:43:26.882Z,1036
2018-06-13T04:44:26.356Z,936
2018-06-13T04:45:26.342Z,928
2018-06-13T04:46:26.326Z,848
2018-06-13T04:47:26.843Z,844
2018-06-13T04:48:26.833Z,764
2018-06-13T04:49:26.300Z,824
2018-06-13T04:50:26.556Z,924
2018-06-13T04:51:26.814Z,952
2018-06-13T04:52:26.794Z,1036
2018-06-13T04:53:26.784Z,1096
2018-06-13T04:54:26.524Z,1184
2018-06-13T04:55:26.779Z,1244
2018-06-13T04:56:26.251Z,1280
2018-06-13T04:57:26.238Z,1348
2018-06-13T04:58:26.955Z,1400
2018-06-13T04:59:26.479Z,1412
2018-06-13T05:00:26.479Z,1544
2018-06-13T05:01:26.729Z,1872
2018-06-13T05:02:26.456Z,2236
2018-06-13T05:03:26.447Z,2436
2018-06-13T05:04:26.696Z,2432
2018-06-13T05:05:26.689Z,2280
2018-06-13T05:06:26.422Z,2160
2018-06-13T05:07:26.679Z,2192
2018-06-13T05:08:26.668Z,2388
2018-06-13T05:09:26.658Z,2556
2018-06-13T05:10:26.391Z,2840
2018-06-13T05:11:26.385Z,3140
2018-06-13T05:12:26.119Z,3268
2018-06-13T05:13:26.367Z,3360
2018-06-13T05:14:26.359Z,3532
2018-06-13T05:15:26.093Z,3724
2018-06-13T05:16:26.612Z,3888
2018-06-13T05:17:26.604Z,4068
2018-06-13T05:18:26.581Z,4348
2018-06-13T05:19:26.315Z,4676
2018-06-13T05:20:26.566Z,4932
2018-06-13T05:21:26.562Z,5060
2018-06-13T05:22:26.544Z,4812
2018-06-13T05:23:26.542Z,4572
2018-06-13T05:24:26.024Z,4392
2018-06-13T05:25:26.267Z,4460
2018-06-13T05:26:26.520Z,4488
2018-06-13T05:27:26.519Z,4624
2018-06-13T05:28:26.502Z,4816
2018-06-13T05:29:26.492Z,4772
2018-06-13T05:30:26.229Z,4388
2018-06-13T05:31:26.479Z,4272
2018-06-13T05:32:26.212Z,3980
2018-06-13T05:33:26.204Z,4024
2018-06-13T05:34:26.256Z,4048
2018-06-13T05:35:25.928Z,4016
2018-06-13T05:36:26.445Z,3896
2018-06-13T05:37:26.177Z,3892
2018-06-13T05:38:26.425Z,3716
2018-06-13T05:39:26.411Z,3576
2018-06-13T05:40:26.418Z,3472
2018-06-13T05:41:26.399Z,3320
2018-06-13T05:42:26.133Z,3108
2018-06-13T05:43:26.129Z,2908
2018-06-13T05:44:26.390Z,3108
2018-06-13T05:45:26.111Z,3476
2018-06-13T05:46:26.111Z,3880
2018-06-13T05:47:26.355Z,4256
2018-06-13T05:48:25.835Z,4272
2018-06-13T05:49:26.083Z,4264
2018-06-13T05:50:26.331Z,4396
2018-06-13T05:51:26.064Z,4268
2018-06-13T05:52:26.056Z,4220
2018-06-13T05:53:26.049Z,4488
2018-06-13T05:54:25.797Z,4540
2018-06-13T05:55:26.039Z,4144
2018-06-13T05:56:25.769Z,3868
2018-06-13T05:57:26.283Z,3592
2018-06-13T05:58:26.268Z,3584
2018-06-13T05:59:25.487Z,3476
2018-06-13T06:00:26.008Z,3892
2018-06-13T06:01:26.416Z,3708
2018-06-13T06:02:25.992Z,4204
2018-06-13T06:03:25.976Z,4696
2018-06-13T06:04:26.221Z,4964
2018-06-13T06:05:26.223Z,5056
2018-06-13T06:06:26.261Z,5120
2018-06-13T06:07:25.945Z,5324
2018-06-13T06:08:26.195Z,5540
2018-06-13T06:09:25.667Z,5948
2018-06-13T06:10:26.372Z,6476
2018-06-13T06:11:26.173Z,6792
2018-06-13T06:12:26.164Z,6932
2018-06-13T06:13:26.156Z,6588
2018-06-13T06:14:25.891Z,6024
2018-06-13T06:15:26.145Z,5384
2018-06-13T06:16:25.879Z,5516
2018-06-13T06:17:25.871Z,5620
2018-06-13T06:18:26.372Z,5736
2018-06-13T06:19:26.108Z,5764
2018-06-13T06:20:26.104Z,6136
2018-06-13T06:21:25.850Z,5884
2018-06-13T06:22:26.089Z,6228
2018-06-13T06:23:26.084Z,6476
2018-06-13T06:24:25.818Z,5816
2018-06-13T06:25:25.805Z,5672
2018-06-13T06:26:26.057Z,5792
2018-06-13T06:27:25.799Z,5972
2018-06-13T06:28:25.791Z,5492
2018-06-13T06:29:25.530Z,6152
2018-06-13T06:30:26.033Z,6260
2018-06-13T06:31:26.023Z,6012
2018-06-13T06:32:25.758Z,5820
2018-06-13T06:33:26.006Z,6236
2018-06-13T06:34:25.744Z,6160
2018-06-13T06:35:25.734Z,5720
2018-06-13T06:36:25.992Z,5988
2018-06-13T06:37:25.720Z,6176
2018-06-13T06:38:25.967Z,5816
2018-06-13T06:39:25.705Z,5796
2018-06-13T06:40:25.696Z,5916
2018-06-13T06:41:25.691Z,5964
2018-06-13T06:42:25.941Z,5984
2018-06-13T06:43:25.674Z,5980
2018-06-13T06:44:25.412Z,6004
2018-06-13T06:45:25.668Z,6136
2018-06-13T06:46:25.909Z,5792
2018-06-13T06:47:25.911Z,5536
2018-06-13T06:48:25.899Z,5924
2018-06-13T06:49:25.633Z,6100
2018-06-13T06:50:25.892Z,6240
2018-06-13T06:51:25.624Z,6276
2018-06-13T06:52:25.353Z,6344
2018-06-13T06:53:25.880Z,6448
2018-06-13T06:54:25.609Z,6004
2018-06-13T06:55:25.692Z,5572
2018-06-13T06:56:25.847Z,6044
2018-06-13T06:57:25.836Z,6152
2018-06-13T06:58:25.830Z,5840
2018-06-13T06:59:25.817Z,5688
2018-06-13T07:00:25.811Z,5760
2018-06-13T07:01:25.544Z,5908
2018-06-13T07:02:25.795Z,6288
2018-06-13T07:03:25.800Z,6828
2018-06-13T07:04:25.009Z,6720
2018-06-13T07:05:25.768Z,6440
2018-06-13T07:06:25.765Z,6652
2018-06-13T07:07:25.511Z,7328
2018-06-13T07:08:25.493Z,7320
2018-06-13T07:09:25.751Z,7236
2018-06-13T07:10:25.734Z,6800
2018-06-13T07:11:25.728Z,7040
2018-06-13T07:12:25.479Z,6072
2018-06-13T07:13:25.714Z,6060
2018-06-13T07:14:25.702Z,8036
2018-06-13T07:15:25.711Z,7820
2018-06-13T07:16:25.440Z,7016
2018-06-13T07:17:25.423Z,6432
2018-06-13T07:18:25.421Z,6808
2018-06-13T07:19:25.716Z,5648
2018-06-13T07:20:25.410Z,5696
2018-06-13T07:21:25.665Z,7376
2018-06-13T07:22:25.650Z,7768
2018-06-13T07:23:25.641Z,7504
2018-06-13T07:24:25.383Z,7580
2018-06-13T07:25:25.123Z,7828
2018-06-13T07:26:25.623Z,9208
2018-06-13T07:27:25.611Z,8848
2018-06-13T07:28:25.347Z,8812
2018-06-13T07:29:25.343Z,10616
2018-06-13T07:30:25.587Z,10736
2018-06-13T07:31:25.585Z,10952
2018-06-13T07:32:25.319Z,12168
2018-06-13T07:33:25.061Z,13576
2018-06-13T07:34:25.570Z,14424
2018-06-13T07:35:25.295Z,13376
2018-06-13T07:36:25.308Z,11468
2018-06-13T07:37:25.553Z,9016
2018-06-13T07:38:25.283Z,8272
2018-06-13T07:39:25.278Z,7412
2018-06-13T07:40:25.530Z,8796
2018-06-13T07:41:25.571Z,9996
2018-06-13T07:42:25.253Z,10956
2018-06-13T07:43:25.248Z,11324
2018-06-13T07:44:25.243Z,12128
2018-06-13T07:45:25.496Z,14044
2018-06-13T07:46:25.235Z,14636
2018-06-13T07:47:25.490Z,12640
2018-06-13T07:48:25.475Z,7992
2018-06-13T07:49:25.209Z,6956
2018-06-13T07:50:25.467Z,6768
2018-06-13T07:51:25.200Z,4356
2018-06-13T07:52:25.194Z,4236
2018-06-13T07:53:25.191Z,4888
2018-06-13T07:54:25.442Z,3540
2018-06-13T07:55:25.175Z,3756
2018-06-13T07:56:25.165Z,4304
2018-06-13T07:57:25.200Z,4808
2018-06-13T07:58:25.411Z,6508
2018-06-13T07:59:25.149Z,8020
2018-06-13T08:00:25.399Z,8484
2018-06-13T08:01:25.394Z,7088
2018-06-13T08:02:25.616Z,5908
2018-06-13T08:03:25.121Z,4760
2018-06-13T08:04:25.369Z,4456
2018-06-13T08:05:25.108Z,4460
2018-06-13T08:06:25.357Z,4372
2018-06-13T08:07:25.349Z,3800
2018-06-13T08:08:25.676Z,4236
2018-06-13T08:09:25.340Z,4416
2018-06-13T08:10:25.332Z,4820
2018-06-13T08:11:25.073Z,5148
2018-06-13T08:12:25.317Z,5136
2018-06-13T08:13:24.798Z,4840
2018-06-13T08:14:25.304Z,4732
2018-06-13T08:15:25.304Z,4668
2018-06-13T08:16:25.030Z,5372
2018-06-13T08:17:25.025Z,5156
2018-06-13T08:18:25.279Z,4980
2018-06-13T08:19:25.274Z,5872
2018-06-13T08:20:25.011Z,6636
2018-06-13T08:21:25.002Z,6528
2018-06-13T08:22:25.247Z,5996
2018-06-13T08:23:24.981Z,5156
2018-06-13T08:24:25.242Z,4964
2018-06-13T08:25:25.232Z,4852
2018-06-13T08:26:25.225Z,5136
2018-06-13T08:27:25.217Z,5296
2018-06-13T08:28:24.958Z,4940
2018-06-13T08:29:25.197Z,4996
2018-06-13T08:30:25.198Z,4372
2018-06-13T08:31:24.673Z,4460
2018-06-13T08:32:25.187Z,4284
2018-06-13T08:33:25.177Z,4008
2018-06-13T08:34:25.176Z,3528
2018-06-13T08:35:24.908Z,3284
2018-06-13T08:36:24.893Z,3096
2018-06-13T08:37:25.147Z,2608
2018-06-13T08:38:25.144Z,2380
2018-06-13T08:39:25.131Z,2276
2018-06-13T08:40:25.124Z,2844
2018-06-13T08:41:24.603Z,3060
2018-06-13T08:42:25.120Z,3552
2018-06-13T08:43:24.846Z,4376
2018-06-13T08:44:25.091Z,5548
2018-06-13T08:45:24.838Z,5380
2018-06-13T08:46:25.081Z,5592
2018-06-13T08:47:25.078Z,4980
2018-06-13T08:48:24.552Z,4676
2018-06-13T08:49:24.806Z,4936
2018-06-13T08:50:24.547Z,4508
2018-06-13T08:51:24.791Z,3432
2018-06-13T08:52:24.787Z,3856
2018-06-13T08:53:24.778Z,4716
2018-06-13T08:54:25.027Z,4656
2018-06-13T08:55:24.759Z,4504
2018-06-13T08:56:24.494Z,4400
2018-06-13T08:57:25.003Z,4420
2018-06-13T08:58:24.996Z,4616
2018-06-13T08:59:24.984Z,4976
2018-06-13T09:00:24.981Z,4972
2018-06-13T09:01:24.713Z,4888
2018-06-13T09:02:24.707Z,4936
2018-06-13T09:03:25.207Z,4860
2018-06-13T09:04:24.941Z,4908
2018-06-13T09:05:24.942Z,4344
2018-06-13T09:06:24.945Z,3924
2018-06-13T09:07:24.924Z,3940
2018-06-13T09:08:24.914Z,4052
2018-06-13T09:09:24.915Z,4220
2018-06-13T09:10:24.644Z,4176
2018-06-13T09:11:24.903Z,4300
2018-06-13T09:12:24.892Z,4376
2018-06-13T09:13:24.879Z,4656
2018-06-13T09:14:24.618Z,4956
2018-06-13T09:15:24.868Z,5476
2018-06-13T09:16:24.860Z,6048
2018-06-13T09:17:24.850Z,6644
2018-06-13T09:18:24.855Z,7076
2018-06-13T09:19:24.835Z,7172
2018-06-13T09:20:24.574Z,7400
2018-06-13T09:21:24.561Z,7572
2018-06-13T09:22:24.889Z,7576
2018-06-13T09:23:24.288Z,7376
2018-06-13T09:24:24.541Z,7116
2018-06-13T09:25:24.796Z,6968
2018-06-13T09:26:24.787Z,6896
2018-06-13T09:27:24.780Z,6916
2018-06-13T09:28:24.775Z,7220
2018-06-13T09:29:24.772Z,7824
2018-06-13T09:30:24.762Z,8400
2018-06-13T09:31:24.901Z,9704
2018-06-13T09:32:24.745Z,10988
2018-06-13T09:33:24.218Z,12580
2018-06-13T09:34:24.477Z,13740
2018-06-13T09:35:24.463Z,15156
2018-06-13T09:36:24.449Z,15736
2018-06-13T09:37:24.598Z,14432
2018-06-13T09:38:24.699Z,13384
2018-06-13T09:39:24.696Z,13400
2018-06-13T09:40:24.424Z,12832
2018-06-13T09:41:24.676Z,12860
2018-06-13T09:42:24.682Z,13180
2018-06-13T09:43:24.408Z,12792
2018-06-13T09:44:24.668Z,12008
2018-06-13T09:45:24.652Z,10216
2018-06-13T09:46:24.649Z,8800
2018-06-13T09:47:30.748Z,8200
2018-06-13T09:48:24.387Z,8348
2018-06-13T09:49:24.636Z,8080
2018-06-13T09:50:24.371Z,8060
2018-06-13T09:51:24.620Z,7916
2018-06-13T09:52:24.351Z,7528
2018-06-13T09:53:24.603Z,7556
2018-06-13T09:54:24.351Z,8140
2018-06-13T09:55:24.594Z,8684
2018-06-13T09:56:24.588Z,8492
2018-06-13T09:57:24.320Z,7860
2018-06-13T09:58:24.566Z,6936
2018-06-13T09:59:24.562Z,5800
2018-06-13T10:00:23.791Z,5216
2018-06-13T10:01:24.296Z,5116
2018-06-13T10:02:24.293Z,5172
2018-06-13T10:03:24.547Z,5012
2018-06-13T10:04:24.019Z,5156
2018-06-13T10:05:24.266Z,6272
2018-06-13T10:06:24.518Z,6560
2018-06-13T10:07:24.527Z,6380
2018-06-13T10:08:24.259Z,6388
2018-06-13T10:09:24.503Z,6328
2018-06-13T10:10:24.252Z,6280
2018-06-13T10:11:24.475Z,6608
2018-06-13T10:12:24.484Z,6696
2018-06-13T10:13:24.471Z,6412
2018-06-13T10:14:24.213Z,6292
2018-06-13T10:15:23.687Z,5572
2018-06-13T10:16:23.945Z,5112
2018-06-13T10:17:23.934Z,5040
2018-06-13T10:18:24.189Z,5104
2018-06-13T10:19:24.177Z,4980
2018-06-13T10:20:24.169Z,5088
2018-06-13T10:21:24.430Z,5840
2018-06-13T10:22:24.519Z,6588
2018-06-13T10:23:24.154Z,7192
2018-06-13T10:24:24.405Z,7520
2018-06-13T10:25:24.191Z,7796
2018-06-13T10:26:24.390Z,8200
2018-06-13T10:27:23.868Z,8552
2018-06-13T10:28:24.374Z,8740
2018-06-13T10:29:24.109Z,8960
2018-06-13T10:30:24.099Z,9444
2018-06-13T10:31:24.353Z,10184
2018-06-13T10:32:24.346Z,10788
2018-06-13T10:33:24.345Z,10724
2018-06-13T10:34:24.685Z,10756
2018-06-13T10:35:24.323Z,10504
2018-06-13T10:36:24.070Z,9852
2018-06-13T10:37:24.062Z,9580
2018-06-13T10:38:24.050Z,9984
2018-06-13T10:39:24.302Z,10620
2018-06-13T10:40:24.041Z,10744
2018-06-13T10:41:24.030Z,10344
2018-06-13T10:42:24.031Z,10012
2018-06-13T10:43:24.282Z,10280
2018-06-13T10:44:24.271Z,10340
2018-06-13T10:45:24.006Z,10060
2018-06-13T10:46:24.007Z,10060
2018-06-13T10:47:24.264Z,10600
2018-06-13T10:48:24.304Z,11444
2018-06-13T10:49:23.994Z,12388
2018-06-13T10:50:23.976Z,13384
2018-06-13T10:51:23.981Z,14668
2018-06-13T10:52:24.232Z,15844
2018-06-13T10:53:24.210Z,16960
2018-06-13T10:54:23.950Z,17632
2018-06-13T10:55:24.203Z,17440
2018-06-13T10:56:23.685Z,16800
2018-06-13T10:57:23.934Z,16896
2018-06-13T10:58:24.189Z,17568
2018-06-13T10:59:24.181Z,17728
2018-06-13T11:00:23.660Z,17024
2018-06-13T11:01:24.171Z,16672
2018-06-13T11:02:24.167Z,17600
2018-06-13T11:03:23.649Z,19264
2018-06-13T11:04:24.160Z,18368
2018-06-13T11:05:23.894Z,15920
2018-06-13T11:06:23.892Z,14540
2018-06-13T11:07:23.887Z,14304
2018-06-13T11:08:24.143Z,14580
2018-06-13T11:09:23.875Z,14128
2018-06-13T11:10:24.130Z,13916
2018-06-13T11:11:23.867Z,13820
2018-06-13T11:12:23.608Z,13340
2018-06-13T11:13:24.115Z,12372
2018-06-13T11:14:23.854Z,11220
2018-06-13T11:15:23.858Z,10616
2018-06-13T11:16:24.110Z,10704
2018-06-13T11:17:24.103Z,11664
2018-06-13T11:18:24.101Z,13472
2018-06-13T11:19:24.095Z,14672
2018-06-13T11:20:23.373Z,13644
2018-06-13T11:21:23.829Z,13200
2018-06-13T11:22:24.073Z,12864
2018-06-13T11:23:24.081Z,12648
2018-06-13T11:24:23.818Z,12088
2018-06-13T11:25:24.069Z,12072
2018-06-13T11:26:24.067Z,12216
2018-06-13T11:27:24.055Z,11840
2018-06-13T11:28:24.051Z,11352
2018-06-13T11:29:23.788Z,10544
2018-06-13T11:30:24.045Z,9668
2018-06-13T11:31:24.096Z,9476
2018-06-13T11:32:23.780Z,9816
2018-06-13T11:33:23.522Z,10064
2018-06-13T11:34:24.031Z,10488
2018-06-13T11:35:23.770Z,11840
2018-06-13T11:36:23.764Z,13060
2018-06-13T11:37:24.013Z,13784
2018-06-13T11:38:24.009Z,14028
2018-06-13T11:39:23.749Z,14472
2018-06-13T11:40:23.996Z,14864
2018-06-13T11:41:24.132Z,15068
2018-06-13T11:42:23.995Z,15368
2018-06-13T11:43:24.025Z,15912
2018-06-13T11:44:23.987Z,16288
2018-06-13T11:45:23.982Z,15820
2018-06-13T11:46:23.975Z,14960
2018-06-13T11:47:23.727Z,14156
2018-06-13T11:48:23.978Z,14500
2018-06-13T11:49:23.972Z,15492
2018-06-13T11:50:23.703Z,15584
2018-06-13T11:51:23.953Z,15108
2018-06-13T11:52:23.955Z,16128
2018-06-13T11:53:23.694Z,17280
2018-06-13T11:54:23.940Z,18016
2018-06-13T11:55:23.938Z,18432
2018-06-13T11:56:23.675Z,18336
2018-06-13T11:57:23.424Z,17312
2018-06-13T11:58:23.926Z,16896
2018-06-13T11:59:23.921Z,17792
2018-06-13T12:00:24.130Z,18624
2018-06-13T12:01:23.914Z,18176
2018-06-13T12:02:23.657Z,18272
2018-06-13T12:03:23.912Z,18656
2018-06-13T12:04:23.906Z,17984
2018-06-13T12:05:23.646Z,16544
2018-06-13T12:06:23.899Z,16448
2018-06-13T12:07:23.634Z,16480
2018-06-13T12:08:23.648Z,14228
2018-06-13T12:09:23.890Z,13044
2018-06-13T12:10:23.881Z,11600
2018-06-13T12:11:23.635Z,9652
2018-06-13T12:12:23.617Z,7864
2018-06-13T12:13:23.615Z,6704
2018-06-13T12:14:23.615Z,6248
2018-06-13T12:15:23.866Z,5376
2018-06-13T12:16:23.605Z,4744
2018-06-13T12:17:23.617Z,4584
2018-06-13T12:18:23.346Z,4488
2018-06-13T12:19:23.849Z,4256
2018-06-13T12:20:23.599Z,3864
2018-06-13T12:21:23.587Z,3624
2018-06-13T12:22:23.584Z,3432
2018-06-13T12:23:23.575Z,3396
2018-06-13T12:24:23.837Z,3568
2018-06-13T12:25:23.827Z,3560
2018-06-13T12:26:23.821Z,3488
2018-06-13T12:27:23.821Z,3376
2018-06-13T12:28:23.815Z,3328
2018-06-13T12:29:23.302Z,3272
2018-06-13T12:30:23.556Z,3280
2018-06-13T12:31:23.796Z,3264
2018-06-13T12:32:23.540Z,3308
2018-06-13T12:33:23.286Z,3408
2018-06-13T12:34:23.491Z,3556
2018-06-13T12:35:23.782Z,3696
2018-06-13T12:36:23.518Z,3828
2018-06-13T12:37:23.829Z,3960
2018-06-13T12:38:23.764Z,4084
2018-06-13T12:39:23.761Z,4304
2018-06-13T12:40:23.669Z,4596
2018-06-13T12:41:23.239Z,4912
2018-06-13T12:42:23.742Z,5148
2018-06-13T12:43:23.740Z,5328
2018-06-13T12:44:23.731Z,5664
2018-06-13T12:45:23.735Z,5960
2018-06-13T12:46:23.717Z,6184
2018-06-13T12:47:23.456Z,6480
2018-06-13T12:48:23.712Z,6828
2018-06-13T12:49:23.856Z,7016
2018-06-13T12:50:23.691Z,7116
2018-06-13T12:51:23.433Z,7092
2018-06-13T12:52:23.432Z,7156
2018-06-13T12:53:23.674Z,7668
2018-06-13T12:54:23.673Z,8372
2018-06-13T12:55:23.415Z,8888
2018-06-13T12:56:23.656Z,9404
2018-06-13T12:57:23.655Z,9932
2018-06-13T12:58:23.390Z,10312
2018-06-13T12:59:23.386Z,10736
2018-06-13T13:00:23.662Z,11224
2018-06-13T13:01:23.628Z,12028
2018-06-13T13:02:23.370Z,12880
2018-06-13T13:03:23.370Z,13408
2018-06-13T13:04:23.624Z,14108
2018-06-13T13:05:23.611Z,14740
2018-06-13T13:06:23.119Z,15372
2018-06-13T13:07:23.342Z,15896
2018-06-13T13:08:23.343Z,15788
2018-06-13T13:09:23.348Z,15308
2018-06-13T13:10:23.685Z,14320
2018-06-13T13:11:23.064Z,12848
2018-06-13T13:12:23.577Z,12676
2018-06-13T13:13:23.565Z,13328
2018-06-13T13:14:23.575Z,14028
2018-06-13T13:15:23.576Z,13820
2018-06-13T13:16:23.051Z,13320
2018-06-13T13:17:23.297Z,12204
2018-06-13T13:18:23.295Z,10252
2018-06-13T13:19:23.548Z,8128
2018-06-13T13:20:23.470Z,6224
2018-06-13T13:21:23.547Z,5204
2018-06-13T13:22:23.281Z,4108
2018-06-13T13:23:23.534Z,3656
2018-06-13T13:24:23.525Z,3256
2018-06-13T13:25:23.267Z,2960
2018-06-13T13:26:23.524Z,2772
2018-06-13T13:27:23.528Z,2612
2018-06-13T13:28:23.513Z,2488
2018-06-13T13:29:23.511Z,2540
2018-06-13T13:30:23.656Z,2756
2018-06-13T13:31:23.498Z,3072
2018-06-13T13:32:23.538Z,3352
2018-06-13T13:33:23.488Z,3640
2018-06-13T13:34:23.484Z,3832